sensor_id;sensor_type;location;lat;lon;timestamp;P1;durP1;ratioP1;P2;durP2;ratioP2
11453;SDS011;5783;55.174;61.310;2023-11-19T01:13:01;2.00;;;1.80;;
11453;SDS011;5783;55.174;61.310;2023-11-19T01:50:15;2.00;;;1.70;;
11453;SDS011;5783;55.174;61.310;2023-11-19T05:09:42;7.13;;;3.33;;
11453;SDS011;5783;55.174;61.310;2023-11-19T05:12:11;6.63;;;3.13;;
11453;SDS011;5783;55.174;61.310;2023-11-19T05:14:40;7.53;;;3.93;;
11453;SDS011;5783;55.174;61.310;2023-11-19T05:17:11;7.13;;;4.47;;
11453;SDS011;5783;55.174;61.310;2023-11-19T05:19:41;13.57;;;7.03;;
11453;SDS011;5783;55.174;61.310;2023-11-19T05:22:10;9.20;;;6.13;;
11453;SDS011;5783;55.174;61.310;2023-11-19T05:24:39;10.20;;;6.60;;
11453;SDS011;5783;55.174;61.310;2023-11-19T05:27:08;8.30;;;4.70;;
11453;SDS011;5783;55.174;61.310;2023-11-19T05:29:39;7.83;;;4.80;;
11453;SDS011;5783;55.174;61.310;2023-11-19T05:32:09;8.50;;;5.23;;
11453;SDS011;5783;55.174;61.310;2023-11-19T05:34:39;8.87;;;4.97;;
11453;SDS011;5783;55.174;61.310;2023-11-19T05:37:08;7.90;;;4.80;;
11453;SDS011;5783;55.174;61.310;2023-11-19T05:39:37;6.10;;;3.80;;
11453;SDS011;5783;55.174;61.310;2023-11-19T05:42:06;9.87;;;5.13;;
11453;SDS011;5783;55.174;61.310;2023-11-19T05:44:36;6.50;;;4.00;;
11453;SDS011;5783;55.174;61.310;2023-11-19T05:47:05;8.37;;;5.53;;
11453;SDS011;5783;55.174;61.310;2023-11-19T05:49:35;9.03;;;5.97;;
11453;SDS011;5783;55.174;61.310;2023-11-19T05:52:04;9.10;;;6.50;;
11453;SDS011;5783;55.174;61.310;2023-11-19T05:54:33;12.97;;;7.70;;
11453;SDS011;5783;55.174;61.310;2023-11-19T05:57:04;11.37;;;7.70;;
11453;SDS011;5783;55.174;61.310;2023-11-19T05:59:54;13.33;;;9.47;;
11453;SDS011;5783;55.174;61.310;2023-11-19T06:02:25;14.23;;;8.70;;
11453;SDS011;5783;55.174;61.310;2023-11-19T06:04:54;14.97;;;10.00;;
11453;SDS011;5783;55.174;61.310;2023-11-19T06:07:23;14.17;;;10.20;;
11453;SDS011;5783;55.174;61.310;2023-11-19T06:09:52;14.27;;;10.07;;
11453;SDS011;5783;55.174;61.310;2023-11-19T06:12:21;14.10;;;9.40;;
11453;SDS011;5783;55.174;61.310;2023-11-19T06:14:50;11.80;;;8.67;;
11453;SDS011;5783;55.174;61.310;2023-11-19T06:17:20;13.87;;;9.10;;
11453;SDS011;5783;55.174;61.310;2023-11-19T06:19:49;11.63;;;8.30;;
11453;SDS011;5783;55.174;61.310;2023-11-19T06:22:18;14.50;;;8.60;;
11453;SDS011;5783;55.174;61.310;2023-11-19T06:24:47;9.97;;;7.60;;
11453;SDS011;5783;55.174;61.310;2023-11-19T06:27:16;10.60;;;7.57;;
11453;SDS011;5783;55.174;61.310;2023-11-19T06:29:45;12.50;;;7.60;;
11453;SDS011;5783;55.174;61.310;2023-11-19T06:32:15;10.23;;;6.40;;
11453;SDS011;5783;55.174;61.310;2023-11-19T06:34:44;8.93;;;5.97;;
11453;SDS011;5783;55.174;61.310;2023-11-19T06:37:14;8.97;;;5.90;;
11453;SDS011;5783;55.174;61.310;2023-11-19T06:39:43;8.50;;;5.70;;
11453;SDS011;5783;55.174;61.310;2023-11-19T06:42:12;7.85;;;5.10;;
11453;SDS011;5783;55.174;61.310;2023-11-19T06:44:41;6.77;;;4.80;;
11453;SDS011;5783;55.174;61.310;2023-11-19T06:47:10;6.87;;;3.80;;
11453;SDS011;5783;55.174;61.310;2023-11-19T06:49:39;6.43;;;3.67;;
11453;SDS011;5783;55.174;61.310;2023-11-19T06:52:10;5.67;;;3.57;;
11453;SDS011;5783;55.174;61.310;2023-11-19T06:54:39;5.90;;;2.90;;
11453;SDS011;5783;55.174;61.310;2023-11-19T06:57:09;4.20;;;3.00;;
11453;SDS011;5783;55.174;61.310;2023-11-19T06:59:38;4.03;;;2.73;;
11453;SDS011;5783;55.174;61.310;2023-11-19T07:02:07;5.10;;;2.87;;
11453;SDS011;5783;55.174;61.310;2023-11-19T07:04:36;4.70;;;2.30;;
11453;SDS011;5783;55.174;61.310;2023-11-19T07:07:06;2.90;;;2.20;;
11453;SDS011;5783;55.174;61.310;2023-11-19T07:09:35;3.53;;;2.20;;
11453;SDS011;5783;55.174;61.310;2023-11-19T07:12:04;3.23;;;2.30;;
11453;SDS011;5783;55.174;61.310;2023-11-19T07:14:34;4.20;;;2.10;;
11453;SDS011;5783;55.174;61.310;2023-11-19T07:17:03;4.20;;;1.93;;
11453;SDS011;5783;55.174;61.310;2023-11-19T07:19:34;4.17;;;2.20;;
11453;SDS011;5783;55.174;61.310;2023-11-19T07:22:04;4.10;;;2.05;;
11453;SDS011;5783;55.174;61.310;2023-11-19T07:24:34;5.83;;;1.90;;
11453;SDS011;5783;55.174;61.310;2023-11-19T07:27:03;3.93;;;1.90;;
11453;SDS011;5783;55.174;61.310;2023-11-19T07:29:32;3.23;;;1.70;;
11453;SDS011;5783;55.174;61.310;2023-11-19T07:32:01;3.40;;;1.65;;
11453;SDS011;5783;55.174;61.310;2023-11-19T07:39:28;4.00;;;1.70;;
11453;SDS011;5783;55.174;61.310;2023-11-19T07:41:58;1.50;;;1.40;;
11453;SDS011;5783;55.174;61.310;2023-11-19T07:46:56;3.10;;;1.60;;
11453;SDS011;5783;55.174;61.310;2023-11-19T07:49:25;2.90;;;1.60;;
11453;SDS011;5783;55.174;61.310;2023-11-19T08:19:07;1.60;;;1.50;;
11453;SDS011;5783;55.174;61.310;2023-11-19T08:24:04;1.95;;;1.75;;
11453;SDS011;5783;55.174;61.310;2023-11-19T09:51:38;4.80;;;1.70;;
11453;SDS011;5783;55.174;61.310;2023-11-19T09:54:07;2.50;;;1.80;;
11453;SDS011;5783;55.174;61.310;2023-11-19T11:20:01;5.65;;;2.10;;
11453;SDS011;5783;55.174;61.310;2023-11-19T14:28:32;6.90;;;3.20;;
11453;SDS011;5783;55.174;61.310;2023-11-19T14:31:01;7.10;;;3.70;;
11453;SDS011;5783;55.174;61.310;2023-11-19T14:33:30;5.15;;;3.35;;
11453;SDS011;5783;55.174;61.310;2023-11-19T14:43:29;6.70;;;3.45;;
11453;SDS011;5783;55.174;61.310;2023-11-19T14:45:58;6.30;;;3.40;;
11453;SDS011;5783;55.174;61.310;2023-11-19T14:48:29;7.40;;;3.40;;
11453;SDS011;5783;55.174;61.310;2023-11-19T14:50:58;6.00;;;3.45;;
11453;SDS011;5783;55.174;61.310;2023-11-19T14:53:29;5.85;;;3.40;;
11453;SDS011;5783;55.174;61.310;2023-11-19T14:55:58;6.60;;;3.10;;
11453;SDS011;5783;55.174;61.310;2023-11-19T14:58:28;5.27;;;3.37;;
11453;SDS011;5783;55.174;61.310;2023-11-19T15:00:57;5.57;;;3.23;;
11453;SDS011;5783;55.174;61.310;2023-11-19T15:03:26;5.90;;;2.90;;
11453;SDS011;5783;55.174;61.310;2023-11-19T15:05:56;4.05;;;2.70;;
11453;SDS011;5783;55.174;61.310;2023-11-19T15:13:23;6.25;;;3.15;;
11453;SDS011;5783;55.174;61.310;2023-11-19T15:15:52;6.00;;;3.20;;
11453;SDS011;5783;55.174;61.310;2023-11-19T15:18:22;4.65;;;2.95;;
11453;SDS011;5783;55.174;61.310;2023-11-19T15:23:20;5.10;;;3.00;;
11453;SDS011;5783;55.174;61.310;2023-11-19T15:25:51;7.00;;;2.80;;
11453;SDS011;5783;55.174;61.310;2023-11-19T15:30:49;6.60;;;2.80;;
11453;SDS011;5783;55.174;61.310;2023-11-19T15:35:48;3.65;;;2.70;;
11453;SDS011;5783;55.174;61.310;2023-11-19T15:38:17;4.20;;;2.70;;
11453;SDS011;5783;55.174;61.310;2023-11-19T15:45:44;6.20;;;2.90;;
11453;SDS011;5783;55.174;61.310;2023-11-19T15:48:13;3.90;;;2.70;;
11453;SDS011;5783;55.174;61.310;2023-11-19T15:50:44;4.95;;;2.80;;
11453;SDS011;5783;55.174;61.310;2023-11-19T15:53:13;4.57;;;2.70;;
11453;SDS011;5783;55.174;61.310;2023-11-19T15:55:43;5.00;;;2.60;;
11453;SDS011;5783;55.174;61.310;2023-11-19T16:00:41;4.75;;;2.90;;
11453;SDS011;5783;55.174;61.310;2023-11-19T16:05:41;4.20;;;2.60;;
11453;SDS011;5783;55.174;61.310;2023-11-19T16:10:39;3.27;;;2.60;;
11453;SDS011;5783;55.174;61.310;2023-11-19T16:13:09;7.50;;;2.80;;
11453;SDS011;5783;55.174;61.310;2023-11-19T16:15:39;4.60;;;2.50;;
11453;SDS011;5783;55.174;61.310;2023-11-19T16:18:08;6.05;;;2.60;;
11453;SDS011;5783;55.174;61.310;2023-11-19T16:20:39;3.65;;;2.35;;
11453;SDS011;5783;55.174;61.310;2023-11-19T16:23:10;4.10;;;2.70;;
11453;SDS011;5783;55.174;61.310;2023-11-19T16:25:39;5.60;;;2.60;;
11453;SDS011;5783;55.174;61.310;2023-11-19T16:30:36;4.95;;;2.45;;
11453;SDS011;5783;55.174;61.310;2023-11-19T16:33:07;4.50;;;2.60;;
11453;SDS011;5783;55.174;61.310;2023-11-19T16:35:36;3.60;;;2.50;;
11453;SDS011;5783;55.174;61.310;2023-11-19T16:38:05;5.00;;;2.30;;
11453;SDS011;5783;55.174;61.310;2023-11-19T16:40:34;3.75;;;2.40;;
11453;SDS011;5783;55.174;61.310;2023-11-19T16:43:05;3.40;;;2.40;;
11453;SDS011;5783;55.174;61.310;2023-11-19T16:48:03;3.70;;;2.90;;
11453;SDS011;5783;55.174;61.310;2023-11-19T16:50:32;6.20;;;2.60;;
11453;SDS011;5783;55.174;61.310;2023-11-19T16:53:03;4.45;;;2.55;;
11453;SDS011;5783;55.174;61.310;2023-11-19T16:55:32;4.40;;;2.80;;
11453;SDS011;5783;55.174;61.310;2023-11-19T16:58:03;3.80;;;2.60;;
11453;SDS011;5783;55.174;61.310;2023-11-19T17:00:32;6.60;;;2.85;;
11453;SDS011;5783;55.174;61.310;2023-11-19T17:05:32;5.40;;;2.70;;
11453;SDS011;5783;55.174;61.310;2023-11-19T17:10:31;4.70;;;2.60;;
11453;SDS011;5783;55.174;61.310;2023-11-19T17:20:26;4.20;;;2.70;;
11453;SDS011;5783;55.174;61.310;2023-11-19T17:27:53;3.00;;;2.70;;
11453;SDS011;5783;55.174;61.310;2023-11-19T17:30:23;3.50;;;2.80;;
11453;SDS011;5783;55.174;61.310;2023-11-19T17:35:20;5.05;;;3.05;;
11453;SDS011;5783;55.174;61.310;2023-11-19T17:40:18;6.70;;;2.60;;
11453;SDS011;5783;55.174;61.310;2023-11-19T17:42:47;3.50;;;2.70;;
11453;SDS011;5783;55.174;61.310;2023-11-19T17:45:17;2.75;;;2.40;;
11453;SDS011;5783;55.174;61.310;2023-11-19T17:47:48;5.70;;;2.80;;
11453;SDS011;5783;55.174;61.310;2023-11-19T17:50:18;4.65;;;2.80;;
11453;SDS011;5783;55.174;61.310;2023-11-19T17:52:48;3.65;;;2.90;;
11453;SDS011;5783;55.174;61.310;2023-11-19T17:55:19;3.50;;;2.60;;
11453;SDS011;5783;55.174;61.310;2023-11-19T17:57:49;3.43;;;2.70;;
11453;SDS011;5783;55.174;61.310;2023-11-19T18:02:47;3.60;;;2.80;;
11453;SDS011;5783;55.174;61.310;2023-11-19T18:05:18;4.95;;;2.70;;
11453;SDS011;5783;55.174;61.310;2023-11-19T18:07:47;5.50;;;2.90;;
11453;SDS011;5783;55.174;61.310;2023-11-19T18:12:44;2.90;;;2.40;;
11453;SDS011;5783;55.174;61.310;2023-11-19T18:15:14;4.45;;;2.65;;
11453;SDS011;5783;55.174;61.310;2023-11-19T18:17:43;4.40;;;2.60;;
11453;SDS011;5783;55.174;61.310;2023-11-19T18:20:13;3.25;;;2.55;;
11453;SDS011;5783;55.174;61.310;2023-11-19T18:22:44;3.50;;;2.70;;
11453;SDS011;5783;55.174;61.310;2023-11-19T18:27:43;2.60;;;2.40;;
11453;SDS011;5783;55.174;61.310;2023-11-19T18:32:41;4.50;;;2.40;;
11453;SDS011;5783;55.174;61.310;2023-11-19T18:37:40;3.10;;;2.30;;
11453;SDS011;5783;55.174;61.310;2023-11-19T18:40:11;3.70;;;2.40;;
11453;SDS011;5783;55.174;61.310;2023-11-19T18:42:42;3.20;;;2.20;;
11453;SDS011;5783;55.174;61.310;2023-11-19T18:45:11;2.60;;;2.30;;
11453;SDS011;5783;55.174;61.310;2023-11-19T18:48:00;2.33;;;2.10;;
11453;SDS011;5783;55.174;61.310;2023-11-19T18:52:59;7.50;;;2.40;;
11453;SDS011;5783;55.174;61.310;2023-11-19T18:55:30;6.10;;;2.10;;
11453;SDS011;5783;55.174;61.310;2023-11-19T18:57:59;3.47;;;2.07;;
11453;SDS011;5783;55.174;61.310;2023-11-19T19:00:29;3.00;;;2.10;;
11453;SDS011;5783;55.174;61.310;2023-11-19T19:02:58;2.60;;;2.03;;
11453;SDS011;5783;55.174;61.310;2023-11-19T19:05:27;2.30;;;2.10;;
11453;SDS011;5783;55.174;61.310;2023-11-19T19:07:56;1.90;;;1.80;;
11453;SDS011;5783;55.174;61.310;2023-11-19T19:10:26;4.03;;;2.23;;
11453;SDS011;5783;55.174;61.310;2023-11-19T19:12:55;3.30;;;2.00;;
11453;SDS011;5783;55.174;61.310;2023-11-19T19:15:24;2.67;;;1.90;;
11453;SDS011;5783;55.174;61.310;2023-11-19T19:17:54;1.80;;;1.70;;
11453;SDS011;5783;55.174;61.310;2023-11-19T19:20:23;2.10;;;1.90;;
11453;SDS011;5783;55.174;61.310;2023-11-19T19:22:52;2.47;;;2.00;;
11453;SDS011;5783;55.174;61.310;2023-11-19T19:25:22;2.60;;;1.93;;
11453;SDS011;5783;55.174;61.310;2023-11-19T19:30:42;2.10;;;1.90;;
11453;SDS011;5783;55.174;61.310;2023-11-19T19:33:11;2.03;;;1.83;;
11453;SDS011;5783;55.174;61.310;2023-11-19T19:35:40;2.83;;;2.03;;
11453;SDS011;5783;55.174;61.310;2023-11-19T19:38:10;2.30;;;1.80;;
11453;SDS011;5783;55.174;61.310;2023-11-19T19:40:39;1.87;;;1.67;;
11453;SDS011;5783;55.174;61.310;2023-11-19T19:43:08;1.50;;;1.40;;
11453;SDS011;5783;55.174;61.310;2023-11-19T19:45:37;3.37;;;1.90;;
11453;SDS011;5783;55.174;61.310;2023-11-19T19:50:55;2.80;;;1.70;;
11453;SDS011;5783;55.174;61.310;2023-11-19T19:53:24;1.80;;;1.57;;
11453;SDS011;5783;55.174;61.310;2023-11-19T19:55:53;2.97;;;1.60;;
11453;SDS011;5783;55.174;61.310;2023-11-19T19:58:22;3.10;;;1.73;;
11453;SDS011;5783;55.174;61.310;2023-11-19T20:00:51;3.00;;;1.80;;
11453;SDS011;5783;55.174;61.310;2023-11-19T20:03:21;2.43;;;1.80;;
11453;SDS011;5783;55.174;61.310;2023-11-19T20:05:50;1.70;;;1.60;;
11453;SDS011;5783;55.174;61.310;2023-11-19T20:08:19;2.00;;;1.80;;
11453;SDS011;5783;55.174;61.310;2023-11-19T20:10:49;2.55;;;1.60;;
11453;SDS011;5783;55.174;61.310;2023-11-19T20:13:18;2.00;;;1.80;;
11453;SDS011;5783;55.174;61.310;2023-11-19T20:15:48;3.00;;;1.90;;
11453;SDS011;5783;55.174;61.310;2023-11-19T20:18:18;2.00;;;1.80;;
11453;SDS011;5783;55.174;61.310;2023-11-19T20:20:50;2.20;;;2.00;;
11453;SDS011;5783;55.174;61.310;2023-11-19T20:23:19;1.70;;;1.50;;
11453;SDS011;5783;55.174;61.310;2023-11-19T20:25:48;2.90;;;2.00;;
11453;SDS011;5783;55.174;61.310;2023-11-19T20:28:18;2.07;;;1.87;;
11453;SDS011;5783;55.174;61.310;2023-11-19T20:30:47;2.65;;;1.85;;
11453;SDS011;5783;55.174;61.310;2023-11-19T20:33:17;2.30;;;1.60;;
11453;SDS011;5783;55.174;61.310;2023-11-19T20:35:46;1.70;;;1.60;;
11453;SDS011;5783;55.174;61.310;2023-11-19T20:38:15;3.47;;;1.97;;
11453;SDS011;5783;55.174;61.310;2023-11-19T20:40:44;2.50;;;1.87;;
11453;SDS011;5783;55.174;61.310;2023-11-19T20:43:14;2.30;;;1.70;;
11453;SDS011;5783;55.174;61.310;2023-11-19T20:45:43;2.00;;;1.80;;
11453;SDS011;5783;55.174;61.310;2023-11-19T20:48:12;2.00;;;1.80;;
11453;SDS011;5783;55.174;61.310;2023-11-19T20:50:42;2.00;;;1.80;;
11453;SDS011;5783;55.174;61.310;2023-11-19T20:53:11;2.40;;;2.00;;
11453;SDS011;5783;55.174;61.310;2023-11-19T20:55:41;1.80;;;1.70;;
11453;SDS011;5783;55.174;61.310;2023-11-19T20:58:11;3.65;;;1.95;;
11453;SDS011;5783;55.174;61.310;2023-11-19T21:00:40;2.23;;;2.00;;
11453;SDS011;5783;55.174;61.310;2023-11-19T21:03:09;2.03;;;1.77;;
11453;SDS011;5783;55.174;61.310;2023-11-19T21:05:38;1.77;;;1.67;;
11453;SDS011;5783;55.174;61.310;2023-11-19T21:08:09;2.35;;;1.90;;
11453;SDS011;5783;55.174;61.310;2023-11-19T21:10:38;1.80;;;1.70;;
11453;SDS011;5783;55.174;61.310;2023-11-19T21:13:08;2.00;;;1.80;;
11453;SDS011;5783;55.174;61.310;2023-11-19T21:15:39;1.87;;;1.77;;
11453;SDS011;5783;55.174;61.310;2023-11-19T21:18:08;2.10;;;1.90;;
11453;SDS011;5783;55.174;61.310;2023-11-19T21:20:37;2.70;;;1.90;;
11453;SDS011;5783;55.174;61.310;2023-11-19T21:23:07;2.63;;;1.80;;
11453;SDS011;5783;55.174;61.310;2023-11-19T21:25:36;2.00;;;1.80;;
11453;SDS011;5783;55.174;61.310;2023-11-19T21:28:05;2.07;;;1.80;;
11453;SDS011;5783;55.174;61.310;2023-11-19T21:30:35;2.10;;;1.90;;
11453;SDS011;5783;55.174;61.310;2023-11-19T21:33:05;2.30;;;1.90;;
11453;SDS011;5783;55.174;61.310;2023-11-19T21:35:35;2.73;;;1.70;;
11453;SDS011;5783;55.174;61.310;2023-11-19T21:38:04;2.00;;;1.80;;
11453;SDS011;5783;55.174;61.310;2023-11-19T21:40:35;1.73;;;1.63;;
11453;SDS011;5783;55.174;61.310;2023-11-19T21:43:06;1.90;;;1.70;;
11453;SDS011;5783;55.174;61.310;2023-11-19T21:45:37;2.10;;;1.90;;
11453;SDS011;5783;55.174;61.310;2023-11-19T21:48:06;1.70;;;1.57;;
11453;SDS011;5783;55.174;61.310;2023-11-19T21:50:35;2.00;;;1.80;;
11453;SDS011;5783;55.174;61.310;2023-11-19T21:53:04;1.83;;;1.73;;
11453;SDS011;5783;55.174;61.310;2023-11-19T21:55:34;1.87;;;1.57;;
11453;SDS011;5783;55.174;61.310;2023-11-19T21:58:05;2.07;;;1.90;;
11453;SDS011;5783;55.174;61.310;2023-11-19T22:00:34;1.90;;;1.80;;
11453;SDS011;5783;55.174;61.310;2023-11-19T22:03:04;2.03;;;1.83;;
11453;SDS011;5783;55.174;61.310;2023-11-19T22:05:33;2.33;;;1.80;;
11453;SDS011;5783;55.174;61.310;2023-11-19T22:08:03;1.90;;;1.80;;
11453;SDS011;5783;55.174;61.310;2023-11-19T22:10:32;2.60;;;1.80;;
11453;SDS011;5783;55.174;61.310;2023-11-19T22:13:01;2.00;;;1.80;;
11453;SDS011;5783;55.174;61.310;2023-11-19T22:15:30;2.40;;;2.20;;
11453;SDS011;5783;55.174;61.310;2023-11-19T22:17:59;1.70;;;1.60;;
11453;SDS011;5783;55.174;61.310;2023-11-19T22:20:28;2.10;;;1.80;;
11453;SDS011;5783;55.174;61.310;2023-11-19T22:22:59;1.83;;;1.70;;
11453;SDS011;5783;55.174;61.310;2023-11-19T22:25:29;3.73;;;1.83;;
11453;SDS011;5783;55.174;61.310;2023-11-19T22:27:58;2.67;;;2.03;;
11453;SDS011;5783;55.174;61.310;2023-11-19T22:30:47;2.60;;;2.10;;
11453;SDS011;5783;55.174;61.310;2023-11-19T22:33:17;2.40;;;2.20;;
11453;SDS011;5783;55.174;61.310;2023-11-19T22:35:48;3.80;;;2.05;;
11453;SDS011;5783;55.174;61.310;2023-11-19T22:38:17;2.10;;;1.90;;
11453;SDS011;5783;55.174;61.310;2023-11-19T22:40:46;2.20;;;1.87;;
11453;SDS011;5783;55.174;61.310;2023-11-19T22:43:17;2.60;;;1.95;;
11453;SDS011;5783;55.174;61.310;2023-11-19T22:45:46;2.15;;;1.90;;
11453;SDS011;5783;55.174;61.310;2023-11-19T22:48:16;2.20;;;2.00;;
11453;SDS011;5783;55.174;61.310;2023-11-19T22:50:45;2.40;;;2.10;;
11453;SDS011;5783;55.174;61.310;2023-11-19T22:53:14;2.30;;;1.80;;
11453;SDS011;5783;55.174;61.310;2023-11-19T22:55:43;2.25;;;2.00;;
11453;SDS011;5783;55.174;61.310;2023-11-19T22:58:12;2.40;;;2.10;;
11453;SDS011;5783;55.174;61.310;2023-11-19T23:00:41;2.80;;;2.10;;
11453;SDS011;5783;55.174;61.310;2023-11-19T23:03:11;2.00;;;1.80;;
11453;SDS011;5783;55.174;61.310;2023-11-19T23:05:40;2.57;;;1.90;;
11453;SDS011;5783;55.174;61.310;2023-11-19T23:08:10;2.25;;;2.05;;
11453;SDS011;5783;55.174;61.310;2023-11-19T23:10:39;2.37;;;2.00;;
11453;SDS011;5783;55.174;61.310;2023-11-19T23:13:09;2.23;;;2.03;;
11453;SDS011;5783;55.174;61.310;2023-11-19T23:15:40;2.10;;;1.90;;
11453;SDS011;5783;55.174;61.310;2023-11-19T23:18:09;2.20;;;2.00;;
11453;SDS011;5783;55.174;61.310;2023-11-19T23:20:38;2.10;;;1.90;;
11453;SDS011;5783;55.174;61.310;2023-11-19T23:23:08;2.10;;;1.90;;
11453;SDS011;5783;55.174;61.310;2023-11-19T23:30:33;3.10;;;1.90;;
11453;SDS011;5783;55.174;61.310;2023-11-19T23:33:02;2.60;;;1.90;;
11453;SDS011;5783;55.174;61.310;2023-11-19T23:35:31;2.10;;;1.90;;
11453;SDS011;5783;55.174;61.310;2023-11-19T23:38:01;2.57;;;1.87;;
11453;SDS011;5783;55.174;61.310;2023-11-19T23:40:30;2.10;;;1.90;;
11453;SDS011;5783;55.174;61.310;2023-11-19T23:45:27;2.13;;;1.90;;
11453;SDS011;5783;55.174;61.310;2023-11-19T23:55:21;2.10;;;1.90;;
11453;SDS011;5783;55.174;61.310;2023-11-19T23:57:50;2.20;;;2.00;;
